Time;durP1;ratioP1;P1;durP2;ratioP2;P2;SDS_P1;SDS_P2;PMS_P1;PMS_P2;Temp;Humidity;BMP_temperature;BMP_pressure;BME280_temperature;BME280_humidity;BME280_pressure;Samples;Min_cycle;Max_cycle;Signal;HPM_P1;HPM_P2
2022/11/07 00:02:08;;;;;;;5.88;3.22;;;13.90;68.40;;;;;;5036406;28;20037;-74
2022/11/07 00:04:34;;;;;;;8.77;3.70;;;13.90;68.40;;;;;;5036424;28;20033;-73
2022/11/07 00:07:00;;;;;;;5.88;3.60;;;13.90;68.70;;;;;;5036548;28;20409;-74
2022/11/07 00:09:26;;;;;;;8.48;4.05;;;13.90;68.80;;;;;;5036514;28;20037;-74
2022/11/07 00:11:52;;;;;;;7.03;3.88;;;13.90;68.90;;;;;;5036354;28;20036;-72
2022/11/07 00:14:18;;;;;;;8.95;4.40;;;13.90;69.00;;;;;;5054364;28;20033;-73
2022/11/07 00:16:45;;;;;;;9.35;4.47;;;13.90;69.20;;;;;;5036222;28;20064;-74
2022/11/07 00:19:13;;;;;;;8.60;4.57;;;13.80;69.10;;;;;;5054140;28;20079;-73
2022/11/07 00:21:39;;;;;;;8.20;4.43;;;13.80;69.10;;;;;;5054343;28;20033;-74
2022/11/07 00:24:06;;;;;;;10.07;5.07;;;13.70;69.20;;;;;;5054156;28;20047;-73
2022/11/07 00:26:32;;;;;;;7.82;4.88;;;13.70;69.80;;;;;;5036318;28;20037;-72
2022/11/07 00:28:58;;;;;;;11.15;5.18;;;13.60;70.10;;;;;;5053821;28;20397;-73
2022/11/07 00:31:24;;;;;;;11.40;5.80;;;13.60;70.50;;;;;;5053944;28;20133;-73
2022/11/07 00:33:50;;;;;;;10.27;5.53;;;13.50;70.50;;;;;;5054244;28;20132;-73
2022/11/07 00:36:23;;;;;;;9.38;5.70;;;13.50;71.00;;;;;;5053919;28;20317;-73
2022/11/07 00:38:50;;;;;;;9.90;6.00;;;13.40;71.50;;;;;;5036167;28;20048;-73
2022/11/07 00:41:16;;;;;;;9.55;5.20;;;13.40;71.60;;;;;;5053865;28;20040;-75
2022/11/07 00:43:42;;;;;;;10.57;5.35;;;13.40;71.80;;;;;;5041960;28;20049;-74
2022/11/07 00:46:09;;;;;;;9.02;4.95;;;13.40;71.90;;;;;;5033656;28;20573;-74
2022/11/07 00:48:35;;;;;;;8.43;4.88;;;13.40;72.30;;;;;;5016021;28;20033;-72
2022/11/07 00:51:10;;;;;;;12.32;4.95;;;13.40;72.40;;;;;;5015945;28;20029;-73
2022/11/07 00:53:36;;;;;;;10.02;4.68;;;13.40;72.40;;;;;;5033494;28;20498;-74
2022/11/07 00:56:07;;;;;;;10.25;5.13;;;13.30;72.20;;;;;;5015626;28;20029;-74
2022/11/07 00:58:34;;;;;;;9.70;4.78;;;13.30;72.30;;;;;;5015709;28;20056;-74
2022/11/07 01:01:16;;;;;;;7.70;4.28;;;13.30;72.70;;;;;;5015610;28;20069;-74
2022/11/07 01:06:27;;;;;;;7.18;4.40;;;13.20;72.70;;;;;;5033569;28;20040;-73
2022/11/07 01:08:55;;;;;;;7.95;4.30;;;13.20;72.70;;;;;;5015651;28;20040;-73
2022/11/07 01:11:22;;;;;;;6.82;3.97;;;13.20;72.90;;;;;;5015846;28;20049;-73
2022/11/07 01:13:48;;;;;;;10.52;4.63;;;13.20;72.90;;;;;;5015425;28;20067;-73
2022/11/07 01:16:14;;;;;;;10.73;4.40;;;13.20;72.90;;;;;;5033142;28;20109;-73
2022/11/07 01:18:40;;;;;;;6.28;4.10;;;13.10;72.90;;;;;;5033333;28;20116;-75
2022/11/07 01:21:08;;;;;;;7.32;4.13;;;13.10;72.90;;;;;;5033231;28;20108;-74
2022/11/07 01:23:35;;;;;;;6.75;3.88;;;13.10;73.10;;;;;;5015396;28;20132;-74
2022/11/07 01:26:05;;;;;;;6.35;3.90;;;13.10;73.30;;;;;;5033144;28;20061;-73
2022/11/07 01:28:31;;;;;;;9.32;4.78;;;13.10;73.20;;;;;;5032893;28;20073;-74
2022/11/07 01:30:57;;;;;;;9.13;4.50;;;13.10;73.10;;;;;;5015286;28;20056;-74
2022/11/07 01:33:23;;;;;;;8.60;4.10;;;13.10;73.00;;;;;;5033166;28;20034;-72
2022/11/07 01:35:49;;;;;;;8.55;4.03;;;13.20;73.20;;;;;;5015001;28;20033;-73
2022/11/07 01:38:14;;;;;;;7.65;4.15;;;13.20;73.10;;;;;;5032814;28;20068;-73
2022/11/07 01:43:49;;;;;;;7.22;4.20;;;13.10;73.00;;;;;;5032577;28;20047;-75
2022/11/07 01:46:16;;;;;;;7.47;4.38;;;13.10;72.90;;;;;;5033010;28;20033;-71
2022/11/07 01:48:47;;;;;;;6.28;3.75;;;13.10;73.10;;;;;;5032994;28;20041;-75
2022/11/07 01:51:15;;;;;;;9.68;4.45;;;13.00;73.20;;;;;;5032874;28;20052;-72
2022/11/07 01:53:41;;;;;;;6.65;4.03;;;13.00;73.30;;;;;;5032734;28;20040;-74
2022/11/07 01:56:12;;;;;;;6.60;3.88;;;13.00;73.40;;;;;;5014885;28;20038;-73
2022/11/07 01:58:38;;;;;;;6.10;3.78;;;12.90;73.40;;;;;;5014908;28;20029;-74
2022/11/07 02:01:04;;;;;;;6.25;3.90;;;12.90;73.10;;;;;;5032981;28;20029;-74
2022/11/07 02:03:30;;;;;;;6.85;4.25;;;12.90;73.20;;;;;;5014848;28;20046;-72
2022/11/07 02:06:00;;;;;;;9.52;4.07;;;12.90;73.30;;;;;;5032656;28;20497;-73
2022/11/07 02:08:28;;;;;;;6.55;3.67;;;12.90;73.30;;;;;;5014846;28;20065;-74
2022/11/07 02:10:56;;;;;;;8.00;3.40;;;12.90;73.40;;;;;;5032573;28;20797;-74
2022/11/07 02:13:29;;;;;;;6.43;3.85;;;12.90;73.40;;;;;;5032479;28;20037;-73
2022/11/07 02:15:57;;;;;;;5.88;3.53;;;12.90;73.50;;;;;;5018982;28;20036;-73
2022/11/07 02:18:25;;;;;;;7.18;3.90;;;12.80;73.50;;;;;;5018939;28;20508;-74
2022/11/07 02:20:52;;;;;;;9.38;3.53;;;12.80;73.60;;;;;;5036762;28;20029;-75
2022/11/07 02:23:35;;;;;;;7.60;3.70;;;12.80;74.30;;;;;;5019029;28;20421;-73
2022/11/07 02:26:01;;;;;;;6.70;3.38;;;12.80;73.70;;;;;;5019898;28;20061;-71
2022/11/07 02:28:28;;;;;;;6.18;3.88;;;12.80;73.40;;;;;;5036927;28;20105;-74
2022/11/07 02:30:54;;;;;;;5.38;3.20;;;12.80;73.40;;;;;;5037291;28;20030;-73
2022/11/07 02:33:22;;;;;;;6.82;3.63;;;12.80;73.40;;;;;;5036942;28;20556;-74
2022/11/07 02:35:50;;;;;;;9.82;3.55;;;12.80;73.30;;;;;;5018894;28;20065;-74
2022/11/07 02:38:20;;;;;;;9.00;3.83;;;12.70;73.30;;;;;;5018487;28;20030;-74
2022/11/07 02:40:56;;;;;;;7.82;3.55;;;12.70;73.30;;;;;;5018340;28;20042;-72
2022/11/07 02:43:25;;;;;;;5.63;3.30;;;12.60;73.50;;;;;;5018171;28;20096;-74
2022/11/07 02:45:53;;;;;;;6.93;3.80;;;12.60;73.50;;;;;;5035879;28;20069;-74
2022/11/07 02:48:19;;;;;;;7.28;3.88;;;12.60;73.60;;;;;;5035902;28;20045;-73
2022/11/07 02:50:45;;;;;;;7.60;3.63;;;12.60;73.50;;;;;;5018301;28;20033;-75
2022/11/07 02:53:11;;;;;;;6.80;3.38;;;12.50;73.60;;;;;;5036055;28;20026;-75
2022/11/07 02:55:36;;;;;;;7.07;3.63;;;12.50;73.40;;;;;;5036063;28;20132;-73
2022/11/07 02:58:03;;;;;;;7.93;3.85;;;12.50;73.70;;;;;;5017905;28;20033;-72
2022/11/07 03:00:28;;;;;;;6.07;3.70;;;12.50;73.80;;;;;;5018034;28;20029;-73
2022/11/07 03:02:54;;;;;;;6.97;4.00;;;12.50;73.70;;;;;;5017962;28;20052;-74
2022/11/07 03:05:20;;;;;;;6.78;3.58;;;12.40;73.70;;;;;;5018167;28;20042;-74
2022/11/07 03:07:47;;;;;;;6.82;3.58;;;12.50;74.10;;;;;;5017985;28;20037;-72
2022/11/07 03:10:15;;;;;;;5.95;3.60;;;12.40;73.70;;;;;;5035830;28;20041;-75
2022/11/07 03:12:40;;;;;;;7.30;3.65;;;12.40;73.80;;;;;;5035420;28;20033;-74
2022/11/07 03:15:08;;;;;;;9.93;4.03;;;12.30;74.10;;;;;;5017830;28;20088;-75
2022/11/07 03:17:34;;;;;;;6.55;3.65;;;12.40;74.00;;;;;;5017654;28;20079;-73
2022/11/07 03:20:00;;;;;;;11.23;3.72;;;12.30;73.90;;;;;;5017734;28;20041;-73
2022/11/07 03:22:26;;;;;;;6.25;3.50;;;12.20;74.20;;;;;;5035792;28;20042;-74
2022/11/07 03:24:52;;;;;;;7.15;3.83;;;12.20;74.20;;;;;;5017249;28;20130;-74
2022/11/07 03:27:18;;;;;;;6.00;3.78;;;12.20;74.30;;;;;;5035292;28;20122;-73
2022/11/07 03:29:43;;;;;;;7.65;3.58;;;12.20;74.50;;;;;;5029158;28;20048;-74
2022/11/07 03:32:09;;;;;;;7.90;3.80;;;12.20;74.50;;;;;;5034045;28;20033;-75
2022/11/07 03:34:35;;;;;;;5.72;3.47;;;12.20;74.40;;;;;;5034335;28;20038;-73
2022/11/07 03:37:01;;;;;;;7.80;3.55;;;12.20;74.70;;;;;;5035507;28;20037;-75
2022/11/07 03:39:26;;;;;;;7.65;3.67;;;12.10;74.40;;;;;;5035296;28;20029;-74
2022/11/07 03:41:52;;;;;;;7.20;3.45;;;12.10;74.70;;;;;;5033761;28;20049;-75
2022/11/07 03:44:18;;;;;;;7.28;3.58;;;12.10;74.70;;;;;;5033628;28;20397;-75
2022/11/07 03:46:43;;;;;;;6.20;3.47;;;12.10;74.70;;;;;;5033620;28;20045;-74
2022/11/07 03:49:09;;;;;;;7.25;3.67;;;12.00;74.80;;;;;;5034941;28;20026;-73
2022/11/07 03:51:35;;;;;;;8.65;3.78;;;12.00;75.10;;;;;;5033651;28;20457;-72
2022/11/07 03:54:01;;;;;;;6.38;3.45;;;12.00;75.10;;;;;;5033530;28;20095;-74
2022/11/07 03:56:27;;;;;;;8.98;4.10;;;12.10;75.10;;;;;;5034799;28;20423;-73
2022/11/07 03:58:52;;;;;;;8.00;3.97;;;12.10;75.00;;;;;;5034759;28;20080;-74
2022/11/07 04:01:18;;;;;;;7.30;4.22;;;12.00;75.10;;;;;;5033296;28;20048;-73
2022/11/07 04:03:44;;;;;;;6.70;4.10;;;12.00;75.20;;;;;;5034518;28;20091;-74
2022/11/07 04:06:09;;;;;;;6.53;3.58;;;12.00;75.20;;;;;;5033430;28;20041;-74
2022/11/07 04:08:35;;;;;;;17.80;4.20;;;12.00;75.40;;;;;;5033346;28;20412;-74
2022/11/07 04:11:01;;;;;;;6.60;3.80;;;12.00;75.40;;;;;;5034832;28;20061;-74
2022/11/07 04:18:56;;;;;;;7.05;4.10;;;11.90;75.80;;;;;;5034808;28;19947;-72
2022/11/07 04:21:22;;;;;;;7.47;4.30;;;11.90;75.80;;;;;;5033204;28;20505;-74
2022/11/07 04:23:47;;;;;;;6.57;3.85;;;11.90;75.80;;;;;;5034141;28;20076;-74
2022/11/07 04:28:58;;;;;;;7.45;3.67;;;11.80;75.90;;;;;;5034268;28;20056;-75
2022/11/07 04:31:24;;;;;;;9.55;4.38;;;11.90;76.00;;;;;;5034181;28;20104;-74
2022/11/07 04:33:50;;;;;;;7.82;4.18;;;11.90;76.20;;;;;;5016652;28;20029;-74
2022/11/07 04:36:16;;;;;;;7.78;3.85;;;11.90;76.00;;;;;;5033402;28;20049;-73
2022/11/07 04:38:42;;;;;;;7.10;3.72;;;11.90;76.00;;;;;;5016079;28;20037;-74
2022/11/07 04:41:21;;;;;;;5.82;3.60;;;11.90;76.10;;;;;;5033815;28;20107;-74
2022/11/07 04:43:46;;;;;;;6.70;3.70;;;11.90;76.20;;;;;;5033984;28;20397;-73
2022/11/07 04:46:13;;;;;;;7.18;3.63;;;11.90;76.00;;;;;;5033871;28;20034;-73
2022/11/07 04:48:38;;;;;;;8.80;4.32;;;11.80;75.80;;;;;;5016271;28;20025;-74
2022/11/07 04:51:04;;;;;;;11.10;3.88;;;11.80;76.10;;;;;;5015979;28;20041;-74
2022/11/07 04:53:30;;;;;;;8.23;4.18;;;11.80;76.20;;;;;;5033693;28;20504;-73
2022/11/07 04:55:56;;;;;;;9.57;4.00;;;11.80;76.00;;;;;;5033442;28;20037;-75
2022/11/07 04:58:21;;;;;;;6.65;4.03;;;11.80;76.30;;;;;;5016052;28;20034;-73
2022/11/07 05:00:47;;;;;;;8.38;4.22;;;11.80;76.10;;;;;;5033715;28;20034;-75
2022/11/07 05:03:13;;;;;;;8.65;4.32;;;11.90;76.90;;;;;;5015896;28;20041;-73
2022/11/07 05:05:39;;;;;;;9.43;3.83;;;11.90;76.30;;;;;;5015699;28;20064;-72
2022/11/07 05:08:05;;;;;;;7.85;4.18;;;11.80;76.30;;;;;;5015630;28;20041;-73
2022/11/07 05:10:31;;;;;;;8.48;4.03;;;11.80;76.20;;;;;;5033126;28;20037;-74
2022/11/07 05:12:56;;;;;;;13.13;6.18;;;11.70;76.30;;;;;;5015695;28;20045;-72
2022/11/07 05:15:22;;;;;;;6.63;4.35;;;11.70;76.40;;;;;;5033284;28;20029;-72
2022/11/07 05:17:48;;;;;;;8.48;4.38;;;11.70;76.70;;;;;;5033221;28;20099;-74
2022/11/07 05:20:34;;;;;;;8.32;3.80;;;11.70;76.80;;;;;;5015394;28;20045;-75
2022/11/07 05:23:17;;;;;;;7.03;4.00;;;11.70;77.30;;;;;;5015341;28;20041;-73
2022/11/07 05:25:50;;;;;;;6.85;4.15;;;11.70;77.10;;;;;;5033264;28;20037;-74
2022/11/07 05:28:26;;;;;;;7.45;4.18;;;11.70;77.20;;;;;;5033068;28;20048;-74
2022/11/07 05:30:53;;;;;;;7.95;3.83;;;11.70;76.70;;;;;;5033474;28;20038;-73
2022/11/07 05:33:19;;;;;;;8.30;4.13;;;11.60;76.90;;;;;;5036581;28;20041;-74
2022/11/07 05:35:45;;;;;;;6.57;4.05;;;11.60;77.70;;;;;;5041779;28;20021;-74
2022/11/07 05:38:11;;;;;;;10.95;4.40;;;11.60;76.90;;;;;;5041447;28;20037;-76
2022/11/07 05:40:38;;;;;;;8.63;4.47;;;11.40;77.10;;;;;;5036404;28;20496;-74
2022/11/07 05:43:07;;;;;;;12.15;4.10;;;11.40;77.20;;;;;;5033094;28;20042;-74
2022/11/07 05:45:36;;;;;;;8.30;4.72;;;11.40;77.40;;;;;;5015338;28;20037;-72
2022/11/07 05:48:05;;;;;;;8.77;4.25;;;11.40;77.30;;;;;;5015242;28;20051;-72
2022/11/07 05:50:31;;;;;;;7.72;4.25;;;11.50;77.50;;;;;;5032783;28;20033;-72
2022/11/07 05:52:57;;;;;;;8.02;4.20;;;11.50;77.00;;;;;;5032668;28;20095;-74
2022/11/07 05:55:24;;;;;;;8.68;4.32;;;11.50;77.10;;;;;;5015098;28;20037;-74
2022/11/07 05:57:50;;;;;;;9.35;5.47;;;11.50;77.20;;;;;;5015150;28;20049;-73
2022/11/07 06:00:16;;;;;;;7.07;4.40;;;11.50;77.30;;;;;;5032665;28;20049;-76
2022/11/07 06:02:42;;;;;;;7.32;4.47;;;11.50;77.20;;;;;;5032551;28;20043;-73
2022/11/07 06:05:08;;;;;;;13.00;4.82;;;11.50;77.30;;;;;;5032572;28;20038;-74
2022/11/07 06:07:36;;;;;;;7.25;4.10;;;11.50;77.50;;;;;;5032710;28;20033;-75
2022/11/07 06:10:06;;;;;;;9.52;5.47;;;11.50;77.20;;;;;;5014781;28;20037;-72
2022/11/07 06:12:32;;;;;;;6.63;4.15;;;11.40;77.80;;;;;;5014899;28;20041;-75
2022/11/07 06:14:58;;;;;;;5.70;3.65;;;11.40;78.10;;;;;;5032540;28;20034;-74
2022/11/07 06:17:23;;;;;;;6.82;3.80;;;11.40;77.50;;;;;;5032933;28;20025;-72
2022/11/07 06:19:49;;;;;;;7.05;3.92;;;11.40;77.50;;;;;;5034093;28;20033;-73
2022/11/07 06:22:15;;;;;;;9.65;4.00;;;11.40;77.50;;;;;;5033413;28;20045;-75
2022/11/07 06:24:41;;;;;;;7.90;4.20;;;11.50;77.40;;;;;;5032417;28;20074;-74
2022/11/07 06:27:06;;;;;;;10.40;4.80;;;11.50;77.40;;;;;;5032670;28;20037;-72
2022/11/07 06:29:32;;;;;;;11.38;4.40;;;11.60;77.60;;;;;;5032484;28;20046;-74
2022/11/07 06:31:58;;;;;;;8.30;5.00;;;11.70;77.40;;;;;;5032280;28;20115;-74
2022/11/07 06:34:23;;;;;;;9.77;4.60;;;11.80;77.20;;;;;;5032596;28;20096;-76
2022/11/07 06:36:54;;;;;;;9.43;4.10;;;11.90;77.30;;;;;;5032467;28;20485;-73
2022/11/07 06:39:20;;;;;;;13.98;4.95;;;12.00;76.80;;;;;;5032547;28;20087;-72
2022/11/07 06:41:47;;;;;;;11.40;4.82;;;12.10;76.70;;;;;;5014400;28;20136;-75
2022/11/07 06:44:13;;;;;;;8.82;4.75;;;12.10;76.70;;;;;;5032341;28;20041;-73
2022/11/07 06:46:39;;;;;;;10.77;5.18;;;12.20;76.90;;;;;;5014549;28;20029;-73
2022/11/07 06:49:05;;;;;;;10.43;5.05;;;12.20;76.60;;;;;;5032473;28;20385;-74
2022/11/07 06:51:31;;;;;;;10.32;5.00;;;12.30;76.60;;;;;;5014459;28;20029;-73
2022/11/07 06:53:56;;;;;;;9.60;5.15;;;12.40;76.60;;;;;;5014766;28;20535;-74
2022/11/07 06:56:22;;;;;;;8.38;4.68;;;12.60;76.60;;;;;;5032548;28;20030;-73
2022/11/07 06:58:48;;;;;;;7.78;5.15;;;12.70;76.40;;;;;;5015071;28;20413;-75
2022/11/07 07:01:15;;;;;;;11.43;5.82;;;12.80;76.20;;;;;;5036337;28;20397;-79
2022/11/07 07:03:42;;;;;;;8.63;4.70;;;12.80;75.80;;;;;;5035728;28;20043;-75
2022/11/07 07:06:13;;;;;;;10.52;5.30;;;12.80;76.00;;;;;;5037388;28;20061;-78
2022/11/07 07:08:39;;;;;;;8.85;4.95;;;12.90;76.10;;;;;;5018513;28;20033;-75
2022/11/07 07:11:07;;;;;;;9.93;5.13;;;12.90;75.40;;;;;;5017908;28;20036;-74
2022/11/07 07:13:33;;;;;;;8.23;4.60;;;13.00;75.50;;;;;;5017411;28;20124;-74
2022/11/07 07:15:59;;;;;;;10.27;4.30;;;12.90;75.10;;;;;;5017161;28;20065;-76
2022/11/07 07:18:26;;;;;;;12.77;4.32;;;12.90;75.40;;;;;;5017411;28;20121;-77
2022/11/07 07:20:54;;;;;;;9.20;4.47;;;13.00;75.50;;;;;;5017582;28;20041;-74
2022/11/07 07:23:20;;;;;;;7.72;4.25;;;13.00;74.70;;;;;;5035470;28;20041;-83
2022/11/07 07:25:46;;;;;;;6.93;4.68;;;13.10;74.60;;;;;;5035334;28;20041;-78
2022/11/07 07:28:12;;;;;;;6.30;4.10;;;13.10;74.50;;;;;;5019800;28;20030;-79
2022/11/07 07:30:38;;;;;;;7.10;4.32;;;13.00;74.40;;;;;;5053730;28;20055;-78
2022/11/07 07:33:04;;;;;;;10.93;4.25;;;13.10;74.60;;;;;;5053849;28;20033;-79
2022/11/07 07:35:30;;;;;;;9.52;4.85;;;13.10;74.40;;;;;;5054814;28;20115;-78
2022/11/07 07:37:56;;;;;;;7.88;4.45;;;13.10;74.30;;;;;;5054626;28;20516;-79
2022/11/07 07:40:22;;;;;;;7.97;4.90;;;13.00;74.40;;;;;;5054941;28;20040;-79
2022/11/07 07:42:48;;;;;;;7.85;4.70;;;13.00;74.30;;;;;;5053535;28;20049;-78
2022/11/07 07:45:14;;;;;;;10.32;4.88;;;13.00;74.30;;;;;;5054981;28;20029;-79
2022/11/07 07:47:41;;;;;;;9.48;4.85;;;12.90;74.50;;;;;;5054923;28;20116;-81
2022/11/07 07:50:08;;;;;;;12.10;5.82;;;13.00;74.60;;;;;;5054684;28;20026;-78
2022/11/07 07:52:34;;;;;;;9.20;4.43;;;12.90;74.40;;;;;;5053253;28;20041;-81
2022/11/07 07:55:00;;;;;;;12.38;4.80;;;12.90;74.50;;;;;;5053402;28;20039;-79
2022/11/07 07:57:26;;;;;;;8.20;4.15;;;12.90;74.40;;;;;;5054724;28;20444;-79
2022/11/07 07:59:51;;;;;;;9.38;4.40;;;12.90;74.50;;;;;;5055307;28;20029;-81
2022/11/07 08:02:17;;;;;;;8.40;4.43;;;12.80;74.30;;;;;;5055134;28;20084;-80
2022/11/07 08:04:43;;;;;;;9.32;4.45;;;12.90;74.60;;;;;;5054992;28;20025;-79
2022/11/07 08:07:09;;;;;;;8.68;4.20;;;12.80;74.40;;;;;;5051449;28;20048;-81
2022/11/07 08:09:35;;;;;;;7.63;4.00;;;12.80;74.50;;;;;;5053408;28;20125;-80
2022/11/07 08:12:03;;;;;;;9.85;4.70;;;12.90;74.60;;;;;;5052098;28;20223;-81
2022/11/07 08:14:29;;;;;;;10.32;4.15;;;12.90;75.20;;;;;;5053175;28;20128;-79
2022/11/07 08:16:55;;;;;;;12.32;4.68;;;13.00;74.50;;;;;;5054294;28;20061;-81
2022/11/07 08:19:20;;;;;;;9.25;4.05;;;13.00;74.60;;;;;;5054071;28;20033;-82
2022/11/07 08:21:46;;;;;;;8.68;3.65;;;13.10;74.50;;;;;;5052820;28;20033;-82
2022/11/07 08:24:12;;;;;;;10.10;4.50;;;13.10;74.50;;;;;;5052845;28;20032;-80
2022/11/07 08:26:38;;;;;;;8.48;3.95;;;13.10;74.60;;;;;;5053549;28;20037;-81
2022/11/07 08:29:04;;;;;;;9.93;3.97;;;13.20;74.60;;;;;;5053611;28;20500;-82
2022/11/07 08:31:29;;;;;;;8.98;3.88;;;13.20;74.60;;;;;;5054647;28;20041;-79
2022/11/07 08:33:59;;;;;;;9.55;4.00;;;13.20;74.70;;;;;;5055441;28;20362;-79
2022/11/07 08:36:25;;;;;;;7.53;4.32;;;13.20;74.60;;;;;;5055580;28;20539;-80
2022/11/07 08:38:51;;;;;;;7.00;4.40;;;13.20;74.70;;;;;;5056790;28;20029;-80
2022/11/07 08:41:17;;;;;;;8.15;4.53;;;13.30;74.70;;;;;;5057003;28;20114;-78
2022/11/07 08:43:43;;;;;;;7.88;4.55;;;13.40;74.80;;;;;;5053815;28;20056;-81
2022/11/07 08:46:09;;;;;;;10.40;4.13;;;13.50;74.70;;;;;;5054387;28;20037;-80
2022/11/07 08:48:34;;;;;;;8.30;4.47;;;13.50;74.50;;;;;;5054006;28;20048;-81
2022/11/07 08:51:01;;;;;;;7.97;4.50;;;13.60;74.70;;;;;;5054055;28;20029;-75
2022/11/07 08:53:28;;;;;;;5.88;3.95;;;13.70;74.50;;;;;;5052649;28;20186;-80
2022/11/07 08:56:02;;;;;;;12.80;4.53;;;13.80;74.50;;;;;;5054206;28;20033;-79
2022/11/07 08:58:27;;;;;;;14.70;4.75;;;13.80;74.40;;;;;;5054119;28;20535;-80
2022/11/07 09:00:53;;;;;;;7.13;3.85;;;13.90;74.40;;;;;;5053886;28;20033;-80
2022/11/07 09:03:19;;;;;;;11.25;4.10;;;14.00;74.30;;;;;;5053730;28;20485;-80
2022/11/07 09:05:44;;;;;;;8.55;3.72;;;14.10;74.20;;;;;;5053590;28;20036;-82
2022/11/07 09:08:10;;;;;;;8.32;3.92;;;14.10;74.10;;;;;;5052406;28;20052;-79
2022/11/07 09:10:36;;;;;;;6.93;3.42;;;14.10;74.20;;;;;;5053320;28;20033;-79
2022/11/07 09:13:02;;;;;;;7.65;3.65;;;14.20;74.00;;;;;;5054040;28;20043;-80
2022/11/07 09:15:27;;;;;;;10.77;3.88;;;14.30;74.00;;;;;;5055024;28;20037;-80
2022/11/07 09:17:53;;;;;;;8.70;4.20;;;14.40;73.80;;;;;;5055472;28;20075;-81
2022/11/07 09:20:19;;;;;;;7.65;3.90;;;14.40;73.60;;;;;;5051857;28;20029;-79
2022/11/07 09:22:46;;;;;;;7.35;4.00;;;14.50;73.60;;;;;;5052807;28;20040;-80
2022/11/07 09:25:12;;;;;;;6.13;3.40;;;14.60;73.60;;;;;;5053211;28;20115;-83
2022/11/07 09:27:37;;;;;;;7.15;3.40;;;14.70;73.20;;;;;;5053213;28;20043;-80
2022/11/07 09:30:04;;;;;;;10.15;4.10;;;14.70;72.90;;;;;;5052987;28;20037;-79
2022/11/07 09:32:30;;;;;;;6.13;3.20;;;14.80;72.60;;;;;;5052250;28;20507;-80
2022/11/07 09:34:56;;;;;;;8.43;3.80;;;14.90;72.50;;;;;;5051886;28;20124;-81
2022/11/07 09:37:22;;;;;;;7.35;3.45;;;14.90;72.20;;;;;;5053366;28;20051;-79
2022/11/07 09:39:48;;;;;;;8.93;3.80;;;15.00;72.40;;;;;;5054045;28;20028;-80
2022/11/07 09:42:16;;;;;;;12.00;4.30;;;15.10;72.20;;;;;;5053424;28;20052;-80
2022/11/07 09:45:12;;;;;;;9.65;4.40;;;15.20;72.20;;;;;;5053509;28;20075;-80
2022/11/07 09:47:49;;;;;;;15.82;4.70;;;15.40;71.80;;;;;;5041642;28;20568;-81
2022/11/07 09:50:26;;;;;;;12.30;4.38;;;15.50;71.70;;;;;;5054026;28;20036;-81
2022/11/07 09:52:57;;;;;;;7.53;4.15;;;15.60;71.60;;;;;;5058461;28;20044;-79
2022/11/07 09:55:35;;;;;;;9.07;4.38;;;15.70;71.20;;;;;;5058667;28;20046;-82
2022/11/07 09:58:08;;;;;;;13.15;5.15;;;15.80;70.80;;;;;;5060251;28;20404;-80
2022/11/07 10:00:34;;;;;;;12.25;5.25;;;15.80;70.40;;;;;;5057172;28;20033;-80
2022/11/07 10:03:01;;;;;;;7.82;4.50;;;15.90;70.40;;;;;;5056040;28;20045;-79
2022/11/07 10:05:54;;;;;;;13.35;4.43;;;16.00;70.10;;;;;;5057064;28;20036;-81
2022/11/07 10:08:33;;;;;;;9.10;4.33;;;16.10;70.30;;;;;;5052817;28;20124;-78
2022/11/07 10:11:30;;;;;;;7.65;3.50;;;16.20;69.50;;;;;;5053232;28;20116;-80
2022/11/07 10:14:15;;;;;;;10.32;3.40;;;16.30;69.60;;;;;;5047020;28;20045;-82
2022/11/07 10:17:15;;;;;;;9.82;3.45;;;16.40;69.60;;;;;;5051748;28;20120;-82
2022/11/07 10:20:04;;;;;;;8.85;3.40;;;16.50;69.30;;;;;;5053375;28;20041;-82
2022/11/07 10:22:51;;;;;;;6.05;2.83;;;16.60;68.90;;;;;;5043351;28;20041;-81
2022/11/07 10:25:59;;;;;;;9.13;3.50;;;16.70;68.30;;;;;;5053513;28;20045;-78
2022/11/07 10:28:26;;;;;;;7.85;3.17;;;16.70;67.60;;;;;;4991700;28;20053;-80
2022/11/07 10:30:54;;;;;;;7.22;2.92;;;16.80;67.10;;;;;;5040163;28;20119;-79
2022/11/07 10:33:26;;;;;;;7.88;3.22;;;17.00;66.80;;;;;;5052115;28;20033;-80
2022/11/07 10:35:56;;;;;;;7.00;2.38;;;17.00;66.80;;;;;;5054691;28;20037;-81
2022/11/07 10:38:29;;;;;;;5.38;2.97;;;17.10;66.40;;;;;;5056828;28;20481;-79
2022/11/07 10:40:55;;;;;;;7.63;3.05;;;17.20;66.50;;;;;;5055380;28;20033;-81
2022/11/07 10:43:31;;;;;;;8.27;2.30;;;17.20;65.90;;;;;;5057088;28;20048;-78
2022/11/07 10:45:58;;;;;;;6.00;2.85;;;17.30;66.10;;;;;;5055625;28;20041;-80
2022/11/07 10:48:24;;;;;;;6.47;2.83;;;17.40;65.50;;;;;;5055469;28;20044;-77
2022/11/07 10:50:52;;;;;;;11.65;2.85;;;17.50;65.60;;;;;;5060900;28;20033;-81
2022/11/07 10:53:19;;;;;;;5.55;2.45;;;17.60;65.10;;;;;;5058117;28;20112;-79
2022/11/07 10:55:46;;;;;;;7.50;2.42;;;17.80;65.20;;;;;;5056527;28;20044;-81
2022/11/07 10:58:17;;;;;;;6.35;2.65;;;17.80;64.60;;;;;;5055391;28;20052;-80
2022/11/07 11:00:55;;;;;;;6.55;2.42;;;17.90;63.70;;;;;;5056340;28;20576;-81
2022/11/07 11:03:28;;;;;;;7.05;2.38;;;18.00;63.50;;;;;;5054881;28;20059;-82
2022/11/07 11:05:54;;;;;;;4.63;2.28;;;18.10;62.90;;;;;;5055621;28;20381;-81
2022/11/07 11:08:22;;;;;;;8.00;2.83;;;18.10;62.50;;;;;;5056481;28;20094;-79
2022/11/07 11:10:49;;;;;;;6.18;2.95;;;18.20;62.30;;;;;;5056283;28;20033;-82
2022/11/07 11:13:29;;;;;;;5.70;2.58;;;18.30;61.50;;;;;;5055302;28;20044;-81
2022/11/07 11:16:00;;;;;;;8.23;2.55;;;18.40;61.50;;;;;;5054767;28;20040;-78
2022/11/07 11:18:26;;;;;;;7.90;2.50;;;18.50;60.10;;;;;;5054950;28;20033;-81
2022/11/07 11:21:01;;;;;;;5.50;2.50;;;18.60;59.10;;;;;;5056079;28;20040;-81
2022/11/07 11:23:34;;;;;;;5.35;2.10;;;18.70;58.20;;;;;;5055955;28;20149;-81
2022/11/07 11:26:04;;;;;;;3.55;1.98;;;18.80;58.20;;;;;;5056470;28;20531;-80
2022/11/07 11:28:36;;;;;;;5.65;1.90;;;18.80;57.60;;;;;;5056459;28;20053;-79
2022/11/07 11:31:14;;;;;;;6.47;2.30;;;18.90;57.30;;;;;;5056617;28;20037;-82
2022/11/07 11:33:57;;;;;;;8.30;2.00;;;18.90;57.80;;;;;;5056924;28;20112;-81
2022/11/07 11:36:28;;;;;;;4.95;2.17;;;19.00;56.90;;;;;;5055936;28;20037;-81
2022/11/07 11:38:54;;;;;;;4.25;1.85;;;19.10;56.60;;;;;;5056331;28;20491;-79
2022/11/07 11:41:22;;;;;;;9.15;1.80;;;19.20;56.50;;;;;;5055676;28;20029;-81
2022/11/07 11:43:57;;;;;;;4.90;1.88;;;19.30;56.10;;;;;;5061394;28;20045;-80
2022/11/07 11:46:31;;;;;;;9.55;2.47;;;19.40;56.40;;;;;;5066596;28;20033;-80
2022/11/07 11:49:36;;;;;;;5.85;1.90;;;19.50;55.80;;;;;;5060905;28;20061;-79
2022/11/07 11:52:13;;;;;;;4.78;1.90;;;19.50;55.10;;;;;;5046888;28;20044;-80
2022/11/07 11:54:39;;;;;;;4.10;2.03;;;19.50;54.90;;;;;;5055457;28;20036;-79
2022/11/07 11:57:10;;;;;;;6.38;2.10;;;19.70;54.90;;;;;;5055078;28;20033;-80
2022/11/07 11:59:57;;;;;;;4.45;2.13;;;19.80;54.60;;;;;;5055041;28;20043;-81
2022/11/07 12:03:10;;;;;;;7.35;2.13;;;19.90;54.60;;;;;;5055280;28;21067;-81
2022/11/07 12:05:45;;;;;;;6.88;2.55;;;20.00;53.60;;;;;;5028104;28;20087;-81
2022/11/07 12:08:13;;;;;;;12.55;2.05;;;20.10;54.50;;;;;;5055011;28;20041;-79
2022/11/07 12:10:43;;;;;;;3.67;1.73;;;20.10;53.50;;;;;;5054836;28;20033;-81
2022/11/07 12:13:32;;;;;;;5.82;1.85;;;20.20;54.20;;;;;;5053138;28;20037;-79
2022/11/07 12:16:17;;;;;;;6.43;2.47;;;20.20;53.40;;;;;;5053454;28;20045;-81
2022/11/07 12:19:04;;;;;;;4.10;1.80;;;20.20;54.00;;;;;;5054682;28;20120;-80
2022/11/07 12:21:33;;;;;;;6.53;1.88;;;20.30;52.90;;;;;;5054748;28;20037;-80
2022/11/07 12:24:14;;;;;;;6.35;1.75;;;20.30;53.90;;;;;;5053242;28;20436;-81
2022/11/07 12:26:51;;;;;;;3.40;1.35;;;20.30;53.20;;;;;;5054652;28;20461;-82
2022/11/07 12:29:47;;;;;;;6.15;1.58;;;20.30;53.80;;;;;;5053218;28;20094;-81
2022/11/07 12:32:23;;;;;;;8.30;1.80;;;20.40;53.20;;;;;;5054881;28;20056;-81
2022/11/07 12:35:07;;;;;;;7.28;2.03;;;20.60;53.90;;;;;;5053015;28;20556;-80
2022/11/07 12:37:42;;;;;;;4.68;2.30;;;20.60;53.40;;;;;;5054498;28;20044;-81
2022/11/07 12:40:12;;;;;;;5.97;1.60;;;20.60;53.50;;;;;;5054698;28;20029;-82
2022/11/07 12:43:10;;;;;;;4.60;1.90;;;20.70;53.60;;;;;;5052763;28;20052;-82
2022/11/07 12:45:45;;;;;;;4.93;2.65;;;20.80;53.50;;;;;;5043061;28;20033;-81
2022/11/07 12:48:32;;;;;;;4.45;1.98;;;20.80;52.00;;;;;;5052867;28;20067;-81
2022/11/07 12:51:24;;;;;;;3.92;1.50;;;20.80;51.70;;;;;;5052701;28;20036;-80
2022/11/07 12:54:06;;;;;;;4.95;1.38;;;20.80;52.40;;;;;;5054030;28;20546;-81
2022/11/07 12:56:36;;;;;;;3.78;1.60;;;20.80;53.10;;;;;;5052622;28;20489;-80
2022/11/07 12:59:09;;;;;;;4.78;1.77;;;20.80;53.20;;;;;;5053168;28;20025;-82
2022/11/07 13:01:58;;;;;;;4.70;2.03;;;20.80;52.90;;;;;;5052354;28;20032;-80
2022/11/07 13:05:00;;;;;;;3.35;1.75;;;20.90;51.90;;;;;;5053958;28;20539;-80
2022/11/07 13:07:36;;;;;;;3.50;1.30;;;21.00;51.70;;;;;;5030088;28;20400;-81
2022/11/07 13:10:23;;;;;;;6.20;1.98;;;21.00;53.10;;;;;;5053617;28;20037;-79
2022/11/07 13:13:01;;;;;;;4.53;1.50;;;20.80;51.60;;;;;;5052498;28;20489;-80